createdAt,value
2022-08-28T08:58:02.681Z,39.22
2022-08-28T09:00:15.015Z,39.22
2022-08-28T09:02:22.576Z,40.16
2022-08-28T09:05:06.012Z,40.13
2022-08-28T09:07:16.563Z,39.18
2022-08-28T09:09:26.202Z,36.29
2022-08-28T09:11:38.926Z,36.11
2022-08-28T09:13:54.309Z,36.70
2022-08-28T09:15:56.885Z,36.13
2022-08-28T09:18:18.363Z,36.07
2022-08-28T09:20:30.220Z,35.47
2022-08-28T09:22:37.500Z,35.15
2022-08-28T09:24:42.221Z,35.04
2022-08-28T09:27:14.489Z,35.38
2022-08-28T09:29:19.044Z,35.51
2022-08-28T09:31:34.693Z,35.31
2022-08-28T09:33:42.326Z,35.35
2022-08-28T09:35:44.621Z,35.04
2022-08-28T09:37:46.877Z,34.79
2022-08-28T09:39:49.436Z,34.57
2022-08-28T09:42:21.583Z,35.19
2022-08-28T09:44:23.949Z,34.68
2022-08-28T09:46:31.802Z,34.60
2022-08-28T09:48:38.920Z,34.92
2022-08-28T09:50:42.508Z,34.61
2022-08-28T09:52:46.278Z,34.61
2022-08-28T09:54:49.925Z,34.72
2022-08-28T09:56:52.937Z,35.02
2022-08-28T09:59:13.483Z,34.99
2022-08-28T10:01:23.266Z,35.60
2022-08-28T10:03:34.244Z,36.37
2022-08-28T10:05:59.189Z,36.13
2022-08-28T10:08:20.823Z,36.49
2022-08-28T10:10:45.842Z,36.73
2022-08-28T10:12:53.912Z,35.83
2022-08-28T10:15:25.420Z,35.00
2022-08-28T10:17:34.101Z,35.71
2022-08-28T10:19:50.989Z,35.37
2022-08-28T10:22:23.541Z,35.41
2022-08-28T10:24:34.883Z,34.87
2022-08-28T10:26:55.520Z,35.17
2022-08-28T10:29:41.383Z,35.26
2022-08-28T10:31:58.856Z,34.69
2022-08-28T10:34:30.106Z,34.13
2022-08-28T10:36:35.310Z,33.36
2022-08-28T10:38:41.924Z,32.73
2022-08-28T10:40:52.021Z,32.21
2022-08-28T10:43:04.972Z,31.66
2022-08-28T10:45:22.291Z,31.81
2022-08-28T10:47:26.463Z,32.27
2022-08-28T10:49:41.741Z,31.95
2022-08-28T10:51:52.291Z,31.47
2022-08-28T10:54:00.146Z,32.03
2022-08-28T10:56:25.489Z,30.75
2022-08-28T10:58:30.424Z,29.53
2022-08-28T11:00:34.696Z,31.14
2022-08-28T11:02:38.067Z,29.78
2022-08-28T11:04:40.795Z,29.13
2022-08-28T11:06:52.200Z,28.40
2022-08-28T11:09:20.786Z,28.49
2022-08-28T11:11:43.378Z,28.33
2022-08-28T11:13:54.972Z,28.53
2022-08-28T11:15:57.376Z,28.53
2022-08-28T11:18:16.817Z,28.01
2022-08-28T11:20:28.438Z,27.61
2022-08-28T11:22:56.597Z,27.61
2022-08-28T11:25:17.455Z,27.11
2022-08-28T11:27:34.783Z,25.49
2022-08-28T11:30:02.200Z,23.92
2022-08-28T11:32:32.907Z,21.11
2022-08-28T11:35:06.448Z,19.67
2022-08-28T11:37:09.106Z,19.31
2022-08-28T11:39:15.512Z,19.34
2022-08-28T11:41:24.292Z,19.12
2022-08-28T11:43:29.909Z,19.60
2022-08-28T11:45:47.769Z,18.25
2022-08-28T11:47:54.075Z,18.17
2022-08-28T11:50:04.924Z,17.22
2022-08-28T11:52:29.760Z,17.47
2022-08-28T11:54:47.169Z,15.52
2022-08-28T11:57:10.546Z,15.52
2022-08-28T11:59:21.030Z,15.33
2022-08-28T12:01:31.275Z,15.49
2022-08-28T12:03:58.250Z,15.39
2022-08-28T12:06:00.830Z,14.62
2022-08-28T12:08:05.086Z,15.79
2022-08-28T12:10:22.895Z,16.00
2022-08-28T12:12:25.107Z,16.82
2022-08-28T12:14:27.874Z,16.10
2022-08-28T12:16:30.555Z,14.68
2022-08-28T12:18:39.010Z,16.50
2022-08-28T12:20:58.902Z,14.45
2022-08-28T12:23:23.670Z,14.07
2022-08-28T12:25:39.457Z,13.74
2022-08-28T12:27:42.041Z,14.72
2022-08-28T12:29:49.788Z,14.32
2022-08-28T12:32:12.736Z,14.87
2022-08-28T12:34:53.789Z,16.11
2022-08-28T12:37:02.158Z,15.27
2022-08-28T12:39:04.512Z,15.20
2022-08-28T12:41:15.163Z,14.51
2022-08-28T12:43:24.478Z,15.17
2022-08-28T12:46:08.478Z,15.35
2022-08-28T12:48:29.486Z,17.54
2022-08-28T12:50:38.327Z,19.27
2022-08-28T12:52:52.155Z,19.11
2022-08-28T12:54:58.886Z,19.73
2022-08-28T12:57:04.877Z,21.04
2022-08-28T12:59:32.630Z,20.58
2022-08-28T13:01:35.552Z,21.52
2022-08-28T13:03:50.200Z,21.56
2022-08-28T13:06:11.225Z,23.45
2022-08-28T13:08:22.023Z,25.32
2022-08-28T13:10:31.387Z,26.67
2022-08-28T13:12:54.900Z,27.55
2022-08-28T13:14:58.335Z,28.06
2022-08-28T13:17:01.152Z,27.83
2022-08-28T13:19:06.774Z,28.42
2022-08-28T13:21:32.536Z,28.54
2022-08-28T13:23:36.424Z,29.29
2022-08-28T13:25:38.790Z,29.90
2022-08-28T13:27:41.345Z,29.30
2022-08-28T13:29:59.668Z,29.27
2022-08-28T13:32:05.114Z,29.35
2022-08-28T13:34:13.173Z,28.99
2022-08-28T13:36:24.870Z,28.41
2022-08-28T13:38:27.123Z,28.35
2022-08-28T13:40:59.148Z,28.51
2022-08-28T13:43:07.087Z,29.03
2022-08-28T13:45:10.084Z,29.12
2022-08-28T13:47:13.987Z,28.91
2022-08-28T13:49:17.088Z,28.68
2022-08-28T13:51:21.501Z,29.71
2022-08-28T13:53:24.161Z,29.94
2022-08-28T13:55:26.666Z,29.23
2022-08-28T13:57:29.377Z,30.13
2022-08-28T13:59:33.990Z,30.25
2022-08-28T14:01:54.979Z,29.90
2022-08-28T14:03:58.945Z,29.94
2022-08-28T14:06:02.960Z,30.38
2022-08-28T14:08:05.407Z,30.42
2022-08-28T14:10:08.433Z,30.34
2022-08-28T14:12:11.223Z,30.75
2022-08-28T14:14:14.059Z,31.49
2022-08-28T14:16:16.889Z,31.28
2022-08-28T14:18:19.436Z,30.87
2022-08-28T14:20:22.105Z,30.86
2022-08-28T14:22:24.714Z,31.07
2022-08-28T14:24:27.444Z,31.16
2022-08-28T14:26:30.471Z,31.68
2022-08-28T14:28:33.077Z,31.53
2022-08-28T14:30:35.352Z,30.53
2022-08-28T14:32:37.718Z,30.37
2022-08-28T14:34:40.313Z,29.90
2022-08-28T14:36:43.111Z,30.70
2022-08-28T14:38:45.385Z,32.26
2022-08-28T14:40:47.933Z,32.26
2022-08-28T14:42:51.137Z,32.66
2022-08-28T14:44:54.081Z,32.61
2022-08-28T14:46:57.491Z,33.18
2022-08-28T14:49:02.348Z,32.92
2022-08-28T14:51:04.680Z,33.06
2022-08-28T14:53:07.369Z,34.12
2022-08-28T14:55:11.239Z,33.68
2022-08-28T14:57:13.725Z,33.48
2022-08-28T14:59:23.978Z,33.65
2022-08-28T15:01:40.383Z,33.75
2022-08-28T15:03:43.511Z,34.41
2022-08-28T15:05:46.834Z,34.04
2022-08-28T15:07:49.398Z,33.93
2022-08-28T15:09:51.763Z,33.92
2022-08-28T15:11:54.641Z,33.97
2022-08-28T15:13:58.566Z,34.01
2022-08-28T15:16:15.989Z,34.36
2022-08-28T15:18:18.644Z,34.18
2022-08-28T15:20:22.080Z,34.60
2022-08-28T15:22:27.212Z,34.44
2022-08-28T15:24:33.173Z,34.08
2022-08-28T15:26:36.889Z,33.88
2022-08-28T15:28:39.190Z,34.07
2022-08-28T15:30:43.325Z,35.04
2022-08-28T15:32:47.347Z,35.23
2022-08-28T15:34:49.648Z,35.27
2022-08-28T15:36:55.180Z,35.28
2022-08-28T15:39:16.982Z,35.21
2022-08-28T15:41:26.737Z,35.32
2022-08-28T15:43:29.523Z,35.88
2022-08-28T15:45:31.854Z,35.81
2022-08-28T15:47:34.134Z,35.71
2022-08-28T15:49:43.499Z,36.25
2022-08-28T15:51:49.369Z,36.17
2022-08-28T15:53:52.587Z,36.47
2022-08-28T15:55:55.231Z,36.84
2022-08-28T15:57:58.133Z,36.73
2022-08-28T16:00:00.400Z,36.93
2022-08-28T16:02:03.055Z,37.22
2022-08-28T16:04:07.388Z,37.45
2022-08-28T16:06:15.343Z,37.83
2022-08-28T16:08:17.983Z,37.80
2022-08-28T16:10:20.874Z,37.59
2022-08-28T16:12:23.147Z,37.89
2022-08-28T16:14:25.438Z,38.01
2022-08-28T16:16:27.975Z,38.74
2022-08-28T16:18:31.038Z,38.01
2022-08-28T16:20:33.638Z,37.71
2022-08-28T16:22:37.262Z,37.87
2022-08-28T16:24:39.935Z,38.17
2022-08-28T16:26:42.372Z,38.77
2022-08-28T16:28:44.966Z,38.82
2022-08-28T16:30:47.524Z,39.05
2022-08-28T16:32:50.563Z,38.88
2022-08-28T16:34:53.105Z,39.69
2022-08-28T16:36:55.430Z,39.34
2022-08-28T16:39:03.529Z,39.55
2022-08-28T16:41:18.705Z,39.51
2022-08-28T16:43:20.986Z,39.75
2022-08-28T16:45:23.457Z,39.68
2022-08-28T16:47:27.321Z,39.95
2022-08-28T16:49:34.212Z,40.20
2022-08-28T16:51:37.220Z,40.68
2022-08-28T16:53:43.249Z,40.30
2022-08-28T16:55:47.007Z,40.11
2022-08-28T16:57:49.266Z,40.66
2022-08-28T16:59:53.571Z,40.35
2022-08-28T17:01:56.034Z,40.18
2022-08-28T17:03:59.737Z,39.75
2022-08-28T17:06:14.119Z,40.47
2022-08-28T17:08:17.070Z,40.00
2022-08-28T17:10:22.299Z,39.63
2022-08-28T17:12:24.882Z,39.71
2022-08-28T17:14:27.262Z,40.26
2022-08-28T17:16:31.645Z,40.54
2022-08-28T17:18:34.987Z,40.56
2022-08-28T17:20:55.874Z,40.54
2022-08-28T17:22:58.804Z,40.47
2022-08-28T17:25:13.656Z,40.63
2022-08-28T17:27:22.397Z,40.43
2022-08-28T17:29:25.491Z,40.25
2022-08-28T17:31:28.187Z,40.63
2022-08-28T17:33:30.607Z,40.83
2022-08-28T17:35:33.641Z,40.54
2022-08-28T17:37:45.758Z,41.35
2022-08-28T17:39:48.503Z,40.86
2022-08-28T17:41:51.274Z,41.38
2022-08-28T17:43:54.392Z,41.40
2022-08-28T17:45:57.132Z,41.50
2022-08-28T17:47:59.659Z,41.67
2022-08-28T17:50:03.055Z,41.67
2022-08-28T17:52:06.555Z,41.48
2022-08-28T17:54:08.975Z,41.32
2022-08-28T17:56:11.942Z,41.26
2022-08-28T17:58:14.793Z,41.36
2022-08-28T18:00:18.651Z,41.59
2022-08-28T18:02:21.344Z,41.64
2022-08-28T18:04:24.660Z,41.62
2022-08-28T18:06:27.465Z,41.21
2022-08-28T18:08:30.416Z,40.92
2022-08-28T18:10:34.136Z,41.35
2022-08-28T18:12:36.892Z,41.05
2022-08-28T18:14:40.525Z,40.67
2022-08-28T18:16:43.243Z,40.16
2022-08-28T18:18:45.772Z,41.21
2022-08-28T18:20:48.843Z,40.83
2022-08-28T18:22:52.123Z,41.09
2022-08-28T18:24:54.816Z,41.20
2022-08-28T18:26:58.559Z,41.36
2022-08-28T18:29:01.283Z,40.89
2022-08-28T18:31:06.455Z,41.00
2022-08-28T18:33:09.680Z,40.93
2022-08-28T18:35:12.569Z,40.72
2022-08-28T18:37:15.255Z,40.32
2022-08-28T18:39:22.637Z,40.13
2022-08-28T18:41:42.990Z,40.47
2022-08-28T18:43:48.260Z,40.59
2022-08-28T18:45:51.769Z,40.75
2022-08-28T18:47:54.580Z,40.56
2022-08-28T18:49:56.888Z,40.63
2022-08-28T18:51:59.785Z,41.54
2022-08-28T18:54:03.224Z,41.59
2022-08-28T18:56:07.081Z,41.19
2022-08-28T18:58:15.503Z,41.22
2022-08-28T19:00:19.137Z,41.39
2022-08-28T19:02:22.068Z,41.73
2022-08-28T19:04:25.617Z,41.39
2022-08-28T19:06:28.426Z,41.83
2022-08-28T19:08:31.919Z,41.99
2022-08-28T19:10:37.296Z,41.45
2022-08-28T19:12:42.132Z,41.28
2022-08-28T19:14:44.881Z,41.84
2022-08-28T19:16:48.072Z,41.65
2022-08-28T19:18:52.795Z,41.50
2022-08-28T19:21:09.050Z,42.03
2022-08-28T19:23:16.801Z,42.15
2022-08-28T19:25:28.333Z,42.17
2022-08-28T19:27:31.692Z,42.47
2022-08-28T19:29:34.874Z,42.71
2022-08-28T19:31:38.022Z,42.62
2022-08-28T19:33:40.836Z,43.04
2022-08-28T19:35:43.909Z,43.26
2022-08-28T19:37:47.393Z,43.37
2022-08-28T19:39:56.269Z,43.64
2022-08-28T19:41:59.558Z,44.09
2022-08-28T19:44:02.316Z,44.27
2022-08-28T19:46:10.215Z,44.20
2022-08-28T19:48:21.830Z,44.00
2022-08-28T19:50:24.818Z,44.07
2022-08-28T19:52:27.817Z,43.51
2022-08-28T19:54:31.485Z,43.24
2022-08-28T19:56:34.896Z,43.30
2022-08-28T19:58:38.105Z,43.97
2022-08-28T20:00:41.194Z,44.87
2022-08-28T20:02:44.592Z,44.76
2022-08-28T20:04:47.300Z,43.51
2022-08-28T20:06:50.199Z,43.43
2022-08-28T20:08:53.127Z,43.20
2022-08-28T20:10:56.401Z,43.42
2022-08-28T20:12:59.185Z,43.72
2022-08-28T20:15:03.599Z,44.18
2022-08-28T20:17:06.811Z,44.83
2022-08-28T20:19:11.277Z,44.70
2022-08-28T20:21:14.749Z,44.53
2022-08-28T20:23:18.538Z,44.79
2022-08-28T20:25:21.420Z,44.80
2022-08-28T20:27:24.092Z,45.53
2022-08-28T20:29:26.496Z,46.22
2022-08-28T20:31:28.833Z,46.08
2022-08-28T20:33:32.270Z,46.81
2022-08-28T20:35:34.939Z,46.77
2022-08-28T20:37:44.928Z,47.13
2022-08-28T20:39:48.171Z,47.45
2022-08-28T20:41:50.648Z,47.44
2022-08-28T20:43:52.921Z,47.76
2022-08-28T20:45:55.508Z,48.21
2022-08-28T20:47:57.795Z,48.16
2022-08-28T20:50:00.161Z,47.93
2022-08-28T20:52:03.280Z,47.95
2022-08-28T20:54:05.680Z,48.17
2022-08-28T20:56:10.096Z,48.76
2022-08-28T20:58:14.299Z,48.96
2022-08-28T21:00:16.809Z,49.16
2022-08-28T21:02:23.659Z,48.88
2022-08-28T21:04:28.430Z,48.44
2022-08-28T21:06:31.179Z,48.50
2022-08-28T21:08:33.436Z,48.74
2022-08-28T21:10:36.443Z,49.03
2022-08-28T21:12:40.045Z,50.05
2022-08-28T21:14:43.348Z,49.66
2022-08-28T21:16:54.880Z,49.49
2022-08-28T21:19:15.240Z,49.74
2022-08-28T21:21:18.499Z,50.03
2022-08-28T21:23:22.935Z,49.94
2022-08-28T21:25:25.492Z,49.84
2022-08-28T21:27:28.321Z,49.91
2022-08-28T21:29:31.310Z,50.03
2022-08-28T21:31:33.895Z,50.26
2022-08-28T21:33:36.462Z,50.14
2022-08-28T21:35:41.804Z,50.56
2022-08-28T21:37:44.767Z,50.86
2022-08-28T21:39:47.111Z,51.40
2022-08-28T21:41:49.991Z,51.74
2022-08-28T21:43:52.365Z,51.72
2022-08-28T21:46:02.721Z,51.94
2022-08-28T21:48:05.814Z,51.73
2022-08-28T21:50:09.019Z,52.12
2022-08-28T21:52:11.276Z,52.91
2022-08-28T21:54:14.231Z,52.62
2022-08-28T21:56:23.014Z,52.58
2022-08-28T21:58:25.515Z,53.20
